createdAt,value
2022-12-13T00:01:26.113Z,6.32
2022-12-13T00:03:57.025Z,5.55
2022-12-13T00:06:27.216Z,6.05
2022-12-13T00:08:56.320Z,5.55
2022-12-13T00:11:25.813Z,6.05
2022-12-13T00:13:54.969Z,5.78
2022-12-13T00:16:25.412Z,13.38
2022-12-13T00:18:57.512Z,7.90
2022-12-13T00:21:31.866Z,14.45
2022-12-13T00:24:01.328Z,13.45
2022-12-13T00:26:32.382Z,8.13
2022-12-13T00:29:01.747Z,7.55
2022-12-13T00:34:23.733Z,6.30
2022-12-13T00:36:54.445Z,6.57
2022-12-13T00:39:22.913Z,4.53
2022-12-13T00:41:52.429Z,4.78
2022-12-13T00:44:22.363Z,6.78
2022-12-13T00:46:53.420Z,8.00
2022-12-13T00:49:21.461Z,4.60
2022-12-13T00:51:50.057Z,5.18
2022-12-13T00:54:18.868Z,5.40
2022-12-13T00:56:49.792Z,5.10
2022-12-13T00:59:17.916Z,6.32
2022-12-13T01:01:46.393Z,5.82
2022-12-13T01:04:15.694Z,6.45
2022-12-13T01:06:50.448Z,6.10
2022-12-13T01:09:27.904Z,6.97
2022-12-13T01:12:01.614Z,6.82
2022-12-13T01:14:33.664Z,6.15
2022-12-13T01:17:03.868Z,7.45
2022-12-13T01:19:41.812Z,4.47
2022-12-13T01:22:12.007Z,7.10
2022-12-13T01:24:41.492Z,9.93
2022-12-13T01:27:10.559Z,8.30
2022-12-13T01:29:39.797Z,21.35
2022-12-13T01:32:09.848Z,4.90
2022-12-13T01:34:38.629Z,4.97
2022-12-13T01:37:07.540Z,4.70
2022-12-13T01:39:38.159Z,5.72
2022-12-13T01:42:08.445Z,6.07
2022-12-13T01:44:57.800Z,4.85
2022-12-13T01:47:33.064Z,5.30
2022-12-13T01:50:05.510Z,5.82
2022-12-13T01:52:35.113Z,4.88
2022-12-13T01:55:05.845Z,3.90
2022-12-13T01:57:39.610Z,4.57
2022-12-13T02:00:13.246Z,11.18
2022-12-13T02:02:42.713Z,4.97
2022-12-13T02:05:31.529Z,6.05
2022-12-13T02:08:02.152Z,3.95
2022-12-13T02:10:30.613Z,4.32
2022-12-13T02:12:59.327Z,3.72
2022-12-13T02:15:31.174Z,60.38
2022-12-13T02:18:09.344Z,9.52
2022-12-13T02:20:56.092Z,6.30
2022-12-13T02:23:43.547Z,4.30
2022-12-13T02:26:27.414Z,4.50
2022-12-13T02:28:59.856Z,4.13
2022-12-13T02:31:33.840Z,4.38
2022-12-13T02:34:02.615Z,4.70
2022-12-13T02:36:41.447Z,3.95
2022-12-13T02:39:12.573Z,3.90
2022-12-13T02:41:49.999Z,3.90
2022-12-13T02:44:28.226Z,4.07
2022-12-13T02:47:12.684Z,3.70
2022-12-13T02:49:44.996Z,4.22
2022-12-13T02:52:14.704Z,3.53
2022-12-13T02:54:54.641Z,4.53
2022-12-13T02:57:30.205Z,4.63
2022-12-13T03:00:02.062Z,4.03
2022-12-13T03:02:31.691Z,4.38
2022-12-13T03:05:22.198Z,3.22
2022-12-13T03:07:57.066Z,4.18
2022-12-13T03:10:31.286Z,3.22
2022-12-13T03:13:34.952Z,3.38
2022-12-13T03:16:15.847Z,3.60
2022-12-13T03:18:53.326Z,3.50
2022-12-13T03:21:26.713Z,4.25
2022-12-13T03:23:55.392Z,3.83
2022-12-13T03:26:27.385Z,3.28
2022-12-13T03:28:56.085Z,3.40
2022-12-13T03:31:25.778Z,3.33
2022-12-13T03:33:53.968Z,3.42
2022-12-13T03:36:23.020Z,3.45
2022-12-13T03:38:54.551Z,3.60
2022-12-13T03:41:31.555Z,3.47
2022-12-13T03:44:00.557Z,3.42
2022-12-13T03:46:30.414Z,3.70
2022-12-13T03:48:58.642Z,4.40
2022-12-13T03:51:27.117Z,4.00
2022-12-13T03:53:55.823Z,3.80
2022-12-13T03:56:26.352Z,3.85
2022-12-13T03:58:54.606Z,4.00
2022-12-13T04:01:23.593Z,4.70
2022-12-13T04:03:53.305Z,4.68
2022-12-13T04:06:23.473Z,4.65
2022-12-13T04:08:54.620Z,5.75
2022-12-13T04:11:42.383Z,6.88
2022-12-13T04:14:21.747Z,7.82
2022-12-13T04:16:53.995Z,6.80
2022-12-13T04:19:24.291Z,9.00
2022-12-13T04:21:54.598Z,7.20
2022-12-13T04:24:31.240Z,17.02
2022-12-13T04:27:02.590Z,20.25
2022-12-13T04:29:33.919Z,13.68
2022-12-13T04:32:04.865Z,12.15
2022-12-13T04:34:40.216Z,17.00
2022-12-13T04:37:08.676Z,10.55
2022-12-13T04:39:36.943Z,9.27
2022-12-13T04:42:06.061Z,6.65
2022-12-13T04:44:37.272Z,6.22
2022-12-13T04:47:05.978Z,5.55
2022-12-13T04:49:34.805Z,6.05
2022-12-13T04:52:04.365Z,6.75
2022-12-13T04:54:37.904Z,8.88
2022-12-13T04:57:07.934Z,8.05
2022-12-13T04:59:36.934Z,5.97
2022-12-13T05:02:06.607Z,5.63
2022-12-13T05:04:34.922Z,7.10
2022-12-13T05:07:03.819Z,6.53
2022-12-13T05:09:32.499Z,8.90
2022-12-13T05:12:02.145Z,8.15
2022-12-13T05:14:31.963Z,8.07
2022-12-13T05:17:01.352Z,14.13
2022-12-13T05:19:31.721Z,11.35
2022-12-13T05:22:03.462Z,14.65
2022-12-13T05:24:32.324Z,10.35
2022-12-13T05:27:01.206Z,9.43
2022-12-13T05:29:29.885Z,7.20
2022-12-13T05:31:59.456Z,6.60
2022-12-13T05:34:27.718Z,5.90
2022-12-13T05:36:56.187Z,8.02
2022-12-13T05:39:29.246Z,8.02
2022-12-13T05:42:01.180Z,7.97
2022-12-13T05:44:32.695Z,8.15
2022-12-13T05:47:03.813Z,8.65
2022-12-13T05:49:33.341Z,8.75
2022-12-13T05:52:20.776Z,6.82
2022-12-13T05:54:56.624Z,5.95
2022-12-13T05:57:37.144Z,6.45
2022-12-13T06:00:29.670Z,6.00
2022-12-13T06:03:05.153Z,10.32
2022-12-13T06:05:34.193Z,38.67
2022-12-13T06:08:02.757Z,15.65
2022-12-13T06:11:10.648Z,7.63
2022-12-13T06:13:44.337Z,8.70
2022-12-13T06:16:22.599Z,7.90
2022-12-13T06:19:01.369Z,6.97
2022-12-13T06:21:41.135Z,6.55
2022-12-13T06:24:15.383Z,7.43
2022-12-13T06:26:45.243Z,7.45
2022-12-13T06:29:24.324Z,8.18
2022-12-13T06:32:02.004Z,8.52
2022-12-13T06:34:34.440Z,8.90
2022-12-13T06:37:05.373Z,8.38
2022-12-13T06:39:34.410Z,9.10
2022-12-13T06:42:06.928Z,8.82
2022-12-13T06:44:35.977Z,7.82
2022-12-13T06:47:10.743Z,8.60
2022-12-13T06:49:44.224Z,13.15
2022-12-13T06:52:16.946Z,14.55
2022-12-13T06:54:48.590Z,8.05
2022-12-13T06:57:16.874Z,8.77
2022-12-13T06:59:47.332Z,8.02
2022-12-13T07:02:25.038Z,9.13
2022-12-13T07:04:56.264Z,9.75
2022-12-13T07:07:26.345Z,9.70
2022-12-13T07:09:55.493Z,8.80
2022-12-13T07:12:26.501Z,9.57
2022-12-13T07:15:00.885Z,10.25
2022-12-13T07:17:32.969Z,9.40
2022-12-13T07:20:05.456Z,9.43
2022-12-13T07:22:34.566Z,11.45
2022-12-13T07:25:05.954Z,12.60
2022-12-13T07:27:35.008Z,11.80
2022-12-13T07:30:03.970Z,15.18
2022-12-13T07:32:36.144Z,13.35
2022-12-13T07:35:06.680Z,9.82
2022-12-13T07:37:36.483Z,12.15
2022-12-13T07:40:11.736Z,9.05
2022-12-13T07:42:42.565Z,9.30
2022-12-13T07:45:12.322Z,8.77
2022-12-13T07:47:40.467Z,11.88
2022-12-13T07:50:24.408Z,11.52
2022-12-13T07:52:56.315Z,9.45
2022-12-13T07:55:33.555Z,12.02
2022-12-13T07:58:07.251Z,9.45
2022-12-13T08:00:37.599Z,10.85
2022-12-13T08:03:06.122Z,10.05
2022-12-13T08:05:39.413Z,9.40
2022-12-13T08:08:11.802Z,9.15
2022-12-13T08:10:43.292Z,7.90
2022-12-13T08:13:13.290Z,8.45
2022-12-13T08:15:44.527Z,8.35
2022-12-13T08:18:12.915Z,7.22
2022-12-13T08:20:47.227Z,7.15
2022-12-13T08:23:18.736Z,6.93
2022-12-13T08:25:51.988Z,7.38
2022-12-13T08:28:20.312Z,7.03
2022-12-13T08:30:49.950Z,7.32
2022-12-13T08:33:19.017Z,7.13
2022-12-13T08:35:48.300Z,7.40
2022-12-13T08:38:22.522Z,11.70
2022-12-13T08:43:24.996Z,8.25
2022-12-13T08:45:54.155Z,7.95
2022-12-13T08:48:35.966Z,7.80
2022-12-13T08:51:24.406Z,9.68
2022-12-13T08:53:54.451Z,9.15
2022-12-13T08:56:43.747Z,8.05
2022-12-13T08:59:20.371Z,8.70
2022-12-13T09:01:49.414Z,8.32
2022-12-13T09:04:31.945Z,8.75
2022-12-13T09:07:01.786Z,8.25
2022-12-13T09:09:30.416Z,7.47
2022-12-13T09:11:59.695Z,7.82
2022-12-13T09:14:33.845Z,8.57
2022-12-13T09:17:03.794Z,8.30
2022-12-13T09:19:37.055Z,9.60
2022-12-13T09:22:08.615Z,8.68
2022-12-13T09:24:43.040Z,8.57
2022-12-13T09:27:27.884Z,7.95
2022-12-13T09:29:57.983Z,7.50
2022-12-13T09:32:28.265Z,8.80
2022-12-13T09:34:57.671Z,8.68
2022-12-13T09:37:26.281Z,9.48
2022-12-13T09:39:56.198Z,9.98
2022-12-13T09:42:31.387Z,8.90
2022-12-13T09:45:03.812Z,12.95
2022-12-13T09:47:37.186Z,11.55
2022-12-13T09:50:29.435Z,9.77
2022-12-13T09:53:11.713Z,13.50
2022-12-13T09:55:49.481Z,14.80
2022-12-13T09:58:24.301Z,15.70
2022-12-13T10:00:54.154Z,20.90
2022-12-13T10:03:24.665Z,20.67
2022-12-13T10:05:56.301Z,22.67
2022-12-13T10:08:26.028Z,38.67
2022-12-13T10:10:54.920Z,17.67
2022-12-13T10:13:38.390Z,18.17
2022-12-13T10:16:23.310Z,25.58
2022-12-13T10:18:53.320Z,62.08
2022-12-13T10:21:22.993Z,35.17
2022-12-13T10:24:25.915Z,17.73
2022-12-13T10:26:50.142Z,12.65
2022-12-13T10:29:21.395Z,17.02
2022-12-13T10:31:51.570Z,16.27
2022-12-13T10:34:23.343Z,12.95
2022-12-13T10:36:52.015Z,11.55
2022-12-13T10:39:41.395Z,14.68
2022-12-13T10:42:22.108Z,14.68
2022-12-13T10:45:15.124Z,21.70
2022-12-13T10:47:47.729Z,19.70
2022-12-13T10:50:37.103Z,16.27
2022-12-13T10:53:05.722Z,12.07
2022-12-13T10:55:35.660Z,11.68
2022-12-13T10:58:12.455Z,12.75
2022-12-13T11:00:45.166Z,11.00
2022-12-13T11:03:28.834Z,10.40
2022-12-13T11:06:05.219Z,11.90
2022-12-13T11:08:33.931Z,10.93
2022-12-13T11:11:07.071Z,11.23
2022-12-13T11:13:38.673Z,10.02
2022-12-13T11:16:26.291Z,11.55
2022-12-13T11:18:56.610Z,9.77
2022-12-13T11:21:33.684Z,15.02
2022-12-13T11:24:07.454Z,12.38
2022-12-13T11:26:38.831Z,9.75
2022-12-13T11:29:26.388Z,12.38
2022-12-13T11:32:04.590Z,11.77
2022-12-13T11:34:48.159Z,10.23
2022-12-13T11:37:28.652Z,9.55
2022-12-13T11:40:01.239Z,10.43
2022-12-13T11:42:46.503Z,10.50
2022-12-13T11:45:22.308Z,10.32
2022-12-13T11:48:09.495Z,10.13
2022-12-13T11:50:42.447Z,10.15
2022-12-13T11:53:23.870Z,9.90
2022-12-13T11:55:52.538Z,10.18
2022-12-13T11:58:53.801Z,10.85
2022-12-13T12:01:17.450Z,10.73
2022-12-13T12:03:53.576Z,14.45
2022-12-13T12:06:47.541Z,17.95
2022-12-13T12:09:26.803Z,20.50
2022-12-13T12:12:03.457Z,16.08
2022-12-13T12:14:38.459Z,17.63
2022-12-13T12:17:17.297Z,12.90
2022-12-13T12:20:23.811Z,13.00
2022-12-13T12:23:08.050Z,10.55
2022-12-13T12:25:52.875Z,9.60
2022-12-13T12:28:44.214Z,9.02
2022-12-13T12:31:22.094Z,8.63
2022-12-13T12:33:51.436Z,8.85
2022-12-13T12:36:31.834Z,12.30
2022-12-13T12:39:26.651Z,11.35
2022-12-13T12:42:19.684Z,11.48
2022-12-13T12:44:56.061Z,9.50
2022-12-13T12:48:41.391Z,9.23
2022-12-13T12:54:26.162Z,14.07
2022-12-13T12:57:52.022Z,9.25
2022-12-13T13:00:39.370Z,10.00
2022-12-13T13:03:27.569Z,8.85
2022-12-13T13:06:04.846Z,8.32
2022-12-13T13:08:40.050Z,8.55
2022-12-13T13:11:24.314Z,11.07
2022-12-13T13:17:23.622Z,11.18
2022-12-13T13:20:17.194Z,9.32
2022-12-13T13:23:32.024Z,8.30
2022-12-13T13:28:51.171Z,8.80
2022-12-13T13:31:29.961Z,8.48
2022-12-13T13:34:21.033Z,8.73
2022-12-13T13:36:56.751Z,8.05
2022-12-13T13:39:54.957Z,9.68
2022-12-13T13:42:44.160Z,8.40
2022-12-13T13:45:25.978Z,8.35
2022-12-13T13:48:21.469Z,8.95
2022-12-13T13:51:24.030Z,8.75
2022-12-13T13:54:02.096Z,27.23
2022-12-13T13:56:35.791Z,22.35
2022-12-13T13:59:24.556Z,15.20
2022-12-13T14:02:01.378Z,12.23
2022-12-13T14:04:41.072Z,9.45
2022-12-13T14:07:26.758Z,9.80
2022-12-13T14:10:14.540Z,10.35
2022-12-13T14:16:04.640Z,11.57
2022-12-13T14:18:55.197Z,10.77
2022-12-13T14:21:32.372Z,12.80
2022-12-13T14:24:04.403Z,11.65
2022-12-13T14:26:42.370Z,10.73
2022-12-13T14:29:15.654Z,12.20
2022-12-13T14:31:48.832Z,13.20
2022-12-13T14:34:23.170Z,12.75
2022-12-13T14:37:14.770Z,10.75
2022-12-13T14:39:45.313Z,11.30
2022-12-13T14:42:33.932Z,11.50
2022-12-13T14:45:22.459Z,16.88
2022-12-13T14:47:54.922Z,19.20
2022-12-13T14:50:25.963Z,16.42
2022-12-13T14:52:57.845Z,12.52
2022-12-13T14:55:29.370Z,14.18
2022-12-13T14:58:00.075Z,22.42
2022-12-13T15:00:35.009Z,15.55
2022-12-13T15:03:05.278Z,17.27
2022-12-13T15:05:37.727Z,18.55
2022-12-13T15:08:16.642Z,11.70
2022-12-13T15:10:49.382Z,17.45
2022-12-13T15:13:23.958Z,14.90
2022-12-13T15:15:57.644Z,18.48
2022-12-13T15:18:33.245Z,20.15
2022-12-13T15:21:25.541Z,16.10
2022-12-13T15:24:01.666Z,17.10
2022-12-13T15:26:40.869Z,35.55
2022-12-13T15:29:25.706Z,66.95
2022-12-13T15:31:58.067Z,28.52
2022-12-13T15:34:31.197Z,32.55
2022-12-13T15:37:01.312Z,39.50
2022-12-13T15:39:33.837Z,36.28
2022-12-13T15:42:02.150Z,43.15
2022-12-13T15:44:33.149Z,31.45
2022-12-13T15:47:03.857Z,72.93
2022-12-13T15:49:35.913Z,36.65
2022-12-13T15:52:25.965Z,47.92
2022-12-13T15:54:56.825Z,33.13
2022-12-13T15:57:28.104Z,34.03
2022-12-13T16:00:05.579Z,27.17
2022-12-13T16:02:59.707Z,32.00
2022-12-13T16:05:32.163Z,16.95
2022-12-13T16:08:14.043Z,15.68
2022-12-13T16:10:51.333Z,18.63
2022-12-13T16:13:30.933Z,21.08
2022-12-13T16:16:09.505Z,17.08
2022-12-13T16:18:46.251Z,24.15
2022-12-13T16:21:15.668Z,26.90
2022-12-13T16:23:48.072Z,14.52
2022-12-13T16:26:22.401Z,12.20
2022-12-13T16:28:51.974Z,13.23
2022-12-13T16:31:25.426Z,10.93
2022-12-13T16:33:54.983Z,16.02
2022-12-13T16:36:23.573Z,17.08
2022-12-13T16:38:51.882Z,20.90
2022-12-13T16:41:22.147Z,19.23
2022-12-13T16:43:56.127Z,18.50
2022-12-13T16:47:13.813Z,13.35
2022-12-13T16:49:28.788Z,22.17
2022-12-13T16:52:00.268Z,13.27
2022-12-13T16:54:30.951Z,18.13
2022-12-13T16:57:01.041Z,21.13
2022-12-13T16:59:29.258Z,15.45
2022-12-13T17:01:57.994Z,15.57
2022-12-13T17:04:32.357Z,15.57
2022-12-13T17:07:07.478Z,14.50
2022-12-13T17:09:36.176Z,19.77
2022-12-13T17:12:05.277Z,15.38
2022-12-13T17:14:33.531Z,14.80
2022-12-13T17:17:03.745Z,14.32
2022-12-13T17:19:32.908Z,14.10
2022-12-13T17:22:02.383Z,13.23
2022-12-13T17:24:32.365Z,14.18
2022-12-13T17:27:01.108Z,13.57
2022-12-13T17:29:29.647Z,18.20
2022-12-13T17:31:58.638Z,20.45
2022-12-13T17:34:28.032Z,16.45
2022-12-13T17:37:10.200Z,12.25
2022-12-13T17:39:52.377Z,13.82
2022-12-13T17:42:24.237Z,20.08
2022-12-13T17:44:56.199Z,24.58
2022-12-13T17:47:27.047Z,16.92
2022-12-13T17:49:57.933Z,13.52
2022-12-13T17:52:42.243Z,19.45
2022-12-13T17:55:17.979Z,17.00
2022-12-13T17:57:47.125Z,22.20
2022-12-13T18:00:17.835Z,18.42
2022-12-13T18:02:55.447Z,15.38
2022-12-13T18:05:26.510Z,14.95
2022-12-13T18:07:56.757Z,14.20
2022-12-13T18:10:30.650Z,14.43
2022-12-13T18:13:00.114Z,16.42
2022-12-13T18:15:29.712Z,14.20
2022-12-13T18:18:11.095Z,14.25
2022-12-13T18:20:41.719Z,16.55
2022-12-13T18:23:10.477Z,15.30
2022-12-13T18:25:40.616Z,84.65
2022-12-13T18:28:11.455Z,36.15
2022-12-13T18:30:41.920Z,21.77
2022-12-13T18:33:15.315Z,22.40
2022-12-13T18:35:47.533Z,18.35
2022-12-13T18:38:15.989Z,28.88
2022-12-13T18:40:44.631Z,36.70
2022-12-13T18:43:13.120Z,23.95
2022-12-13T18:45:43.039Z,20.15
2022-12-13T18:48:11.621Z,22.05
2022-12-13T18:50:47.103Z,25.80
2022-12-13T18:53:24.311Z,29.35
2022-12-13T18:55:54.040Z,16.73
2022-12-13T18:58:22.198Z,19.88
2022-12-13T19:00:51.251Z,13.90
2022-12-13T19:03:19.891Z,14.80
2022-12-13T19:05:48.648Z,18.92
2022-12-13T19:08:36.106Z,21.35
2022-12-13T19:11:11.331Z,19.40
2022-12-13T19:13:39.720Z,16.60
2022-12-13T19:16:10.249Z,16.33
2022-12-13T19:18:40.084Z,18.98
2022-12-13T19:21:10.615Z,15.85
2022-12-13T19:23:41.206Z,16.80
2022-12-13T19:26:15.292Z,16.65
2022-12-13T19:28:46.853Z,15.90
2022-12-13T19:31:18.607Z,16.38
2022-12-13T19:33:47.906Z,15.93
2022-12-13T19:36:16.920Z,15.27
2022-12-13T19:38:47.208Z,16.98
2022-12-13T19:41:18.552Z,15.60
2022-12-13T19:43:53.617Z,15.23
2022-12-13T19:46:23.059Z,15.55
2022-12-13T19:48:51.853Z,15.68
2022-12-13T19:51:21.603Z,19.10
2022-12-13T19:53:53.339Z,18.52
2022-12-13T19:56:22.829Z,17.20
2022-12-13T19:58:51.714Z,22.40
2022-12-13T20:01:25.692Z,58.92
2022-12-13T20:03:54.469Z,20.50
2022-12-13T20:06:26.844Z,19.65
2022-12-13T20:08:55.923Z,35.25
2022-12-13T20:11:25.250Z,17.40
2022-12-13T20:13:55.407Z,19.40
2022-12-13T20:16:26.012Z,25.73
2022-12-13T20:19:01.117Z,34.63
2022-12-13T20:21:30.960Z,52.55
2022-12-13T20:24:01.966Z,24.05
2022-12-13T20:26:33.496Z,27.00
2022-12-13T20:29:02.036Z,32.55
2022-12-13T20:31:34.936Z,49.00
2022-12-13T20:34:06.973Z,37.00
2022-12-13T20:36:35.924Z,36.38
2022-12-13T20:39:07.948Z,29.55
2022-12-13T20:41:38.389Z,50.10
2022-12-13T20:44:08.172Z,18.23
2022-12-13T20:46:37.967Z,26.38
2022-12-13T20:49:07.511Z,33.50
2022-12-13T20:51:38.096Z,46.22
2022-12-13T20:54:06.398Z,78.57
2022-12-13T20:56:36.976Z,37.63
2022-12-13T20:59:06.839Z,21.33
2022-12-13T21:01:39.334Z,18.40
2022-12-13T21:04:10.933Z,14.43
2022-12-13T21:06:42.686Z,23.58
2022-12-13T21:09:12.240Z,21.90
2022-12-13T21:11:45.551Z,30.60
2022-12-13T21:14:21.327Z,33.35
2022-12-13T21:16:59.386Z,31.48
2022-12-13T21:19:30.099Z,25.30
2022-12-13T21:22:00.564Z,36.60
2022-12-13T21:24:32.491Z,39.20
2022-12-13T21:27:02.861Z,29.83
2022-12-13T21:29:33.463Z,29.25
2022-12-13T21:32:10.901Z,24.23
2022-12-13T21:34:41.764Z,23.58
2022-12-13T21:37:11.000Z,23.52
2022-12-13T21:39:40.657Z,22.25
2022-12-13T21:42:11.826Z,29.92
2022-12-13T21:44:41.691Z,30.92
2022-12-13T21:47:18.771Z,20.02
2022-12-13T21:49:48.796Z,19.77
2022-12-13T21:52:18.405Z,20.33
2022-12-13T21:54:47.614Z,19.95
2022-12-13T21:57:34.576Z,19.70
2022-12-13T22:00:05.286Z,19.92
2022-12-13T22:02:45.338Z,26.75
2022-12-13T22:05:13.939Z,21.02
2022-12-13T22:07:42.561Z,21.58
2022-12-13T22:10:11.573Z,21.38
2022-12-13T22:12:41.715Z,30.35
2022-12-13T22:15:12.525Z,22.98
2022-12-13T22:17:44.473Z,25.15
2022-12-13T22:20:15.492Z,21.65
2022-12-13T22:22:45.381Z,32.22
2022-12-13T22:25:13.578Z,26.27
2022-12-13T22:27:43.662Z,27.13
2022-12-13T22:30:12.082Z,26.38
2022-12-13T22:32:42.486Z,27.58
2022-12-13T22:35:12.206Z,24.75
2022-12-13T22:37:42.317Z,19.17
2022-12-13T22:40:11.432Z,19.08
2022-12-13T22:42:40.663Z,20.10
2022-12-13T22:45:09.067Z,22.13
2022-12-13T22:47:37.696Z,26.15
2022-12-13T22:50:07.203Z,30.02
2022-12-13T22:52:36.533Z,46.28
2022-12-13T22:55:05.822Z,129.18
2022-12-13T22:57:37.876Z,80.45
2022-12-13T23:00:10.436Z,95.85
2022-12-13T23:02:39.503Z,93.75
2022-12-13T23:05:08.057Z,81.78
2022-12-13T23:07:36.673Z,65.13
2022-12-13T23:10:25.373Z,41.47
2022-12-13T23:13:02.763Z,53.38
2022-12-13T23:15:31.959Z,117.82
2022-12-13T23:18:00.683Z,107.45
2022-12-13T23:20:32.218Z,226.40
2022-12-13T23:23:02.978Z,114.68
2022-12-13T23:25:31.773Z,181.65
2022-12-13T23:28:01.350Z,190.70
2022-12-13T23:30:30.107Z,151.40
2022-12-13T23:32:59.104Z,136.85
2022-12-13T23:35:28.367Z,77.35
2022-12-13T23:37:57.554Z,56.55
2022-12-13T23:40:25.948Z,43.20
2022-12-13T23:42:54.713Z,44.08
2022-12-13T23:45:23.719Z,41.67
2022-12-13T23:47:52.499Z,40.47
2022-12-13T23:50:20.998Z,46.55
2022-12-13T23:52:50.396Z,39.33
2022-12-13T23:55:19.048Z,34.78
2022-12-13T23:57:47.611Z,29.30
